Bei Facebook empfehlenBei Twitter postenGoogle plusPinterest

Das Wetter im Erzgebirge am 29.06.2017

Wetter und Klima am 29.06.2017 Holzhau im Erzgebirge (630m ü.NN)
Letzte gemessene Temperatur und Uhrzeit der Messung23:45:00 Uhr12.10 °C
Temperatur (Maximum / Höchstwert) und Uhrzeit der Messung09:15:00 Uhr15.30 °C
Temperatur (Minimum / Tiefstwert) und Uhrzeit der Messung03:15:0011.60 °C
Errechneter Absolutwert der Temperaturschwankungen zwischen Tmin und Tmax des Tages3.70 K
Errechnete Tagesmitteltemperatur13.36563 °C
Gesamt - Niederschlag des Tages (in flüssiger Form)12.43 Liter / m²
Luftdruck (Maximum / Höchstwert) und Zeitpunkt der Messung23:45:00 Uhr998.20 hPa
Luftdruck (Minimum / Tiefstwert) und Zeitpunkt der Messung07:30:00 Uhr991.80 hPa
Errechneter Absolutwert der Luftdruckschwankungen des Tages6.40 hPa
Höchste gemessene Windgeschwindigkeit und Uhrzeit der Messung16:30:00 Uhr56.88 km/h
Errechnete Windhäufigkeit in Relation zu den Messwerten des Tages20.83333 %
Niedrigste Windkühle (Windchill) und Zeitpunkt der Messung19:00:00 Uhr11.40 °C
Taupunkt (Maximum / Höchstwert) und Uhrzeit der Messung09:15:00 Uhr14.30 °C
Taupunkt (Minimum / Tiefstwert) und Uhrzeit der Messung03:15:0010.30 °C
Anzahl der automatisch eingelesenen Messwerte 96

Detaillierte Wetter- und Klima- Messwerte für den 29.06.2017 in Holzhau im Erzgebirge (630m ü.NN)
ZeitTemperaturLuftdruckRel. LuftfeuchteWindWindrichtungWindchillTaupunktNiederschlag l/m²
23:45:0012.10 °C998.20 hPa92.00 %6.48 km/hWSW12.10 °C10.80 °C12.43
23:30:0012.10 °C998.20 hPa92.00 %20.88 km/hSW11.90 °C10.80 °C12.43
23:15:0012.30 °C998.10 hPa91.00 %10.90 °C12.43
23:00:0012.40 °C998.00 hPa91.00 %11.00 °C12.43
22:45:0012.60 °C998.20 hPa91.00 %11.20 °C12.43
22:30:0012.70 °C997.90 hPa91.00 %6.48 km/hWNW12.70 °C11.30 °C12.43
22:15:0012.60 °C997.90 hPa92.00 %11.30 °C12.43
22:00:0012.50 °C998.00 hPa92.00 %20.88 km/hSW12.40 °C11.20 °C12.43
21:45:0012.40 °C997.80 hPa92.00 %24.48 km/hSW12.00 °C11.10 °C12.43
21:30:0012.20 °C997.60 hPa92.00 %19.44 km/hSW12.10 °C10.90 °C12.43
21:15:0012.20 °C997.40 hPa91.00 %10.80 °C12.43
21:00:0012.30 °C997.30 hPa91.00 %10.90 °C12.43
20:45:0012.40 °C997.40 hPa91.00 %11.00 °C12.43
20:30:0012.50 °C997.30 hPa91.00 %11.10 °C12.43
20:15:0012.50 °C997.20 hPa91.00 %11.10 °C12.43
20:00:0012.60 °C997.10 hPa92.00 %18.00 km/hNW12.70 °C11.30 °C12.43
19:45:0012.70 °C996.80 hPa92.00 %11.40 °C12.43
19:30:0012.60 °C996.80 hPa92.00 %11.30 °C12.43
19:15:0012.40 °C996.70 hPa93.00 %11.30 °C12.43
19:00:0012.40 °C996.50 hPa93.00 %38.88 km/hNNO11.40 °C11.30 °C12.43
18:45:0012.40 °C996.40 hPa93.00 %15.48 km/hNW12.40 °C11.30 °C12.43
18:30:0012.40 °C996.20 hPa92.00 %11.10 °C12.43
18:15:0012.60 °C996.00 hPa92.00 %11.30 °C12.43
18:00:0013.00 °C996.20 hPa91.00 %11.60 °C12.43
17:45:0013.80 °C996.10 hPa90.00 %25.92 km/hW13.60 °C12.20 °C12.43
17:30:0014.40 °C995.90 hPa90.00 %12.80 °C12.43
17:15:0014.80 °C995.60 hPa91.00 %37.44 km/hWSW14.30 °C13.30 °C12.43
17:00:0015.10 °C995.40 hPa92.00 %13.80 °C12.43
16:45:0015.00 °C995.40 hPa93.00 %41.40 km/hSW14.40 °C13.90 °C12.43
16:30:0014.60 °C995.50 hPa93.00 %56.88 km/hSW13.50 °C13.50 °C12.43
16:15:0014.20 °C995.30 hPa93.00 %6.48 km/hW14.20 °C13.10 °C12.43
16:00:0014.30 °C995.20 hPa93.00 %13.20 °C12.43
15:45:0014.40 °C995.40 hPa94.00 %13.40 °C12.43
15:30:0014.30 °C995.00 hPa94.00 %13.30 °C11.91
15:15:0014.20 °C995.00 hPa94.00 %5.04 km/hWNW14.20 °C13.20 °C11.91
15:00:0013.90 °C994.90 hPa94.00 %37.44 km/hWSW13.20 °C13.00 °C11.39
14:45:0013.90 °C994.80 hPa94.00 %13.00 °C11.39
14:30:0013.80 °C994.60 hPa94.00 %12.90 °C10.88
14:15:0013.80 °C994.60 hPa94.00 %16.92 km/hSSW13.80 °C12.90 °C10.36
14:00:0013.80 °C994.40 hPa94.00 %12.90 °C9.84
13:45:0013.90 °C994.20 hPa94.00 %14.40 km/hSSW13.90 °C13.00 °C9.32
13:30:0014.20 °C993.90 hPa94.00 %13.20 °C8.80
13:15:0014.30 °C993.80 hPa94.00 %13.30 °C8.80
13:00:0014.30 °C993.50 hPa94.00 %13.30 °C8.80
12:45:0014.20 °C993.50 hPa94.00 %25.92 km/hWSW14.10 °C13.20 °C8.29
12:30:0014.30 °C993.20 hPa94.00 %13.30 °C8.29
12:15:0014.40 °C992.80 hPa94.00 %13.40 °C7.77
12:00:0014.40 °C992.80 hPa94.00 %13.40 °C7.25
11:45:0014.50 °C992.70 hPa94.00 %13.50 °C6.21
11:30:0014.60 °C992.80 hPa94.00 %13.60 °C5.18
11:15:0014.80 °C992.50 hPa94.00 %13.80 °C4.14
11:00:0014.90 °C992.00 hPa94.00 %13.90 °C4.14
10:45:0015.10 °C991.90 hPa94.00 %14.10 °C3.62
10:30:0015.10 °C992.00 hPa94.00 %1.44 km/hNW15.10 °C14.10 °C3.62
10:15:0015.20 °C992.00 hPa94.00 %14.20 °C3.11
10:00:0015.20 °C992.00 hPa94.00 %14.20 °C2.59
09:45:0015.10 °C992.30 hPa93.00 %14.00 °C2.07
09:30:0015.20 °C992.30 hPa93.00 %14.10 °C1.03
09:15:0015.30 °C991.90 hPa94.00 %14.30 °C1.03
09:00:0015.30 °C991.90 hPa94.00 %14.30 °C1.03
08:45:0015.20 °C992.00 hPa94.00 %14.20 °C1.03
08:30:0015.10 °C992.00 hPa93.00 %14.00 °C1.03
08:15:0015.00 °C991.90 hPa93.00 %13.90 °C0.52
08:00:0015.10 °C991.90 hPa93.00 %14.00 °C0.52
07:45:0014.90 °C992.10 hPa94.00 %13.90 °C0.52
07:30:0014.40 °C991.80 hPa93.00 %13.30 °C0.52
07:15:0013.90 °C992.00 hPa93.00 %12.80 °C0.52
07:00:0013.50 °C992.00 hPa93.00 %12.40 °C0.52
06:45:0013.20 °C991.80 hPa92.00 %11.90 °C0.52
06:30:0013.10 °C991.80 hPa92.00 %11.80 °C 
06:15:0013.00 °C992.20 hPa93.00 %11.90 °C 
06:00:0012.80 °C992.50 hPa93.00 %11.70 °C 
05:45:0012.40 °C992.60 hPa92.00 %11.10 °C 
05:30:0012.20 °C992.60 hPa92.00 %10.90 °C 
05:15:0012.10 °C992.80 hPa92.00 %10.80 °C 
05:00:0012.20 °C993.10 hPa92.00 %10.90 °C 
04:45:0012.30 °C993.20 hPa92.00 %11.00 °C 
04:30:0012.20 °C993.50 hPa92.00 %10.90 °C 
04:15:0012.20 °C993.60 hPa92.00 %10.90 °C 
04:00:0012.10 °C993.70 hPa92.00 %10.80 °C 
03:45:0011.90 °C993.80 hPa92.00 %10.60 °C 
03:30:0011.80 °C993.90 hPa92.00 %10.50 °C 
03:15:0011.60 °C994.20 hPa92.00 %10.30 °C 
03:00:0011.60 °C994.20 hPa92.00 %10.30 °C 
02:45:0011.60 °C994.30 hPa92.00 %10.30 °C 
02:30:0011.60 °C994.40 hPa92.00 %10.30 °C 
02:15:0011.60 °C994.50 hPa92.00 %10.30 °C 
02:00:0011.90 °C994.80 hPa92.00 %10.60 °C 
01:45:0012.00 °C994.70 hPa91.00 %10.60 °C 
01:30:0012.10 °C995.00 hPa91.00 %10.70 °C 
01:15:0012.30 °C995.10 hPa91.00 %10.90 °C 
01:00:0012.50 °C995.30 hPa90.00 %10.90 °C 
00:45:0012.70 °C995.40 hPa90.00 %11.10 °C 
00:30:0012.90 °C995.50 hPa89.00 %11.10 °C 
00:15:0013.20 °C995.80 hPa89.00 %11.40 °C 
00:00:0013.40 °C995.90 hPa89.00 %11.60 °C 

Permanenter Link zu dieser Seite: Wetter im Erzgebirge am 29.06.2017
Performance-Info: Die Erstellung der Seite / Statistik(en) / Tabelle(n) erforderte 5 Datenbankserver-Abfrage(n) und dauerte 102 Millisekunden. (Dieser Messwert ist von der Gesamt-Auslastung des Servers abhängig.)
Erzgebirge - Wetter | Erzgebirge - Wetter (Mobilgeräte) | Komplette Klimadatenbank